Costa Luminosa — ICGU — position and weather

sailwx.info

Track history (hours):
 
Tides and Currents Weather Stations Pressure Air Temp Water Temp Dewpoint Dewpoint Depression Visibility Wind Speed Wind Dir Waves Ship Positions

Costa Luminosa

Last reported at 2017-Jan-12 01:23 UTC. Time now 2017-Jan-19 21:31 UTC.
Position N 28°04' W 013°29'.

Length 294 m; draft 8 m.

Type: Passenger vessel. MMSI: 247257900.

Date/timePositionNaut miles runAvg speedWind from/ knotsBaromVisibWave heightAir tempDewpointWater temp
2017-Jan-12 01:23N 28°04' W 013°29'2218.0
2017-Jan-12 00:08N 28°21' W 013°13'59511.5
2017-Jan-09 20:12N 35°57' W 005°42'1218.1
2017-Jan-09 19:33N 35°59' W 005°27'1818.1
2017-Jan-09 18:33N 36°04' W 005°06'13519.2
2017-Jan-09 11:31N 36°25' W 002°20'1918.5
2017-Jan-09 10:28N 36°33' W 001°59'5819.7
2017-Jan-09 07:32N 37°12' W 001°04'1919.5
2017-Jan-09 06:33N 37°25' W 000°47'2019.7
2017-Jan-09 05:33N 37°39' W 000°29'1919.3
2017-Jan-09 04:33N 37°55' W 000°16'2019.7
2017-Jan-09 03:33N 38°12' W 000°03'1919.2
2017-Jan-09 02:33N 38°28' E 000°11'2019.7
2017-Jan-09 01:33N 38°45' E 000°24'2719.0
2017-Jan-09 00:09N 39°08' E 000°40'5019.1
2017-Jan-08 21:33N 39°52' E 001°11'1919.2
2017-Jan-08 20:34N 40°09' E 001°23'2019.8
2017-Jan-08 19:33N 40°26' E 001°35'2019.7
2017-Jan-08 18:33N 40°43' E 001°47'2019.8
2017-Jan-08 17:33N 41°01' E 001°60'1918.6
2017-Jan-08 16:33N 41°18' E 002°11'3 3.4
2017-Jan-08 15:32N 41°21' E 002°11'0 0.0
2017-Jan-08 14:32N 41°21' E 002°11'0 0.0
2017-Jan-08 13:23N 41°21' E 002°11'0 0.0
2017-Jan-08 12:08N 41°21' E 002°11'0 0.0
2017-Jan-08 11:32N 41°21' E 002°11'0 0.0
2017-Jan-08 10:23N 41°21' E 002°11'0 0.0
2017-Jan-08 09:32N 41°21' E 002°11'0 0.0
2017-Jan-08 08:32N 41°21' E 002°11'0 0.0
2017-Jan-08 07:32N 41°21' E 002°11'0 0.0
2017-Jan-08 06:33N 41°21' E 002°10'6 5.6
2017-Jan-08 05:34N 41°16' E 002°13'1413.7
2017-Jan-08 04:33N 41°23' E 002°29'1414.4
2017-Jan-08 03:33N 41°32' E 002°44'1414.4
2017-Jan-08 02:33N 41°40' E 002°60'1414.0
2017-Jan-08 01:33N 41°48' E 003°15'1514.7
2017-Jan-08 00:33N 41°58' E 003°30'10115.7
2017-Jan-07 18:05N 43°10' E 005°06'916.2
2017-Jan-07 17:33N 43°18' E 005°12'1 0.0
2017-Jan-07 05:33N 43°17' E 005°13'1110.9
2017-Jan-07 04:33N 43°07' E 005°16'8013.4
2017-Jan-06 22:33N 43°14' E 007°05'1414.4
2017-Jan-06 21:33N 43°23' E 007°21'1514.7
2017-Jan-06 20:33N 43°32' E 007°38'1616.3
2017-Jan-06 19:33N 43°41' E 007°56'2316.6
2017-Jan-06 18:11N 43°58' E 008°17'1016.3
2017-Jan-06 17:33N 44°06' E 008°26'1313.3
2017-Jan-06 16:34N 44°19' E 008°31'1 1.0
2017-Jan-06 15:29N 44°19' E 008°29'0 0.0
2017-Jan-06 14:33N 44°19' E 008°29'0 0.0
2017-Jan-06 13:33N 44°19' E 008°29'0 0.0
2017-Jan-06 12:24N 44°19' E 008°29'0 0.0
2017-Jan-06 11:30N 44°19' E 008°29'0 0.0
2017-Jan-06 10:29N 44°19' E 008°29'0 0.0
2017-Jan-06 09:29N 44°19' E 008°29'0 0.0
2017-Jan-06 08:29N 44°19' E 008°29'0 0.2
2017-Jan-06 07:33N 44°19' E 008°29'8 8.3
2017-Jan-06 06:33N 44°12' E 008°37'1817.5
2017-Jan-06 05:33N 43°58' E 008°50'2120.6
2017-Jan-06 04:34N 43°40' E 009°05'2120.6
2017-Jan-06 03:34N 43°23' E 009°20'2020.2
2017-Jan-06 02:33N 43°06' E 009°36'1919.4
2017-Jan-06 01:34N 42°49' E 009°48'2220.7
2017-Jan-06 00:29N 42°36' E 010°13'2120.7
2017-Jan-05 23:29N 42°22' E 010°33'30711.8
2017-Jan-04 21:33N 38°41' E 015°13'1716.8
2017-Jan-04 20:33N 38°29' E 015°29'1616.2
2017-Jan-04 19:33N 38°17' E 015°42'1515.3
2017-Jan-04 18:33N 38°02' E 015°35'1414.3
2017-Jan-04 17:33N 37°51' E 015°47'1616.0
2017-Jan-04 16:33N 37°47' E 016°07'35717.0
2017-Jan-03 19:32N 36°33' E 023°24'1717.9
2017-Jan-03 18:33N 36°50' E 023°30'3918.1
2017-Jan-03 16:23N 37°29' E 023°40'1416.7
2017-Jan-03 15:33N 37°42' E 023°40'1414.1
2017-Jan-03 14:34N 37°56' E 023°38'0 0.4
2017-Jan-03 13:32N 37°56' E 023°38'0 0.0
2017-Jan-03 12:32N 37°56' E 023°38'0 0.0
2017-Jan-03 11:20N 37°56' E 023°38'0 0.0
2017-Jan-03 10:32N 37°56' E 023°38'0 0.0
2017-Jan-03 09:32N 37°56' E 023°38'0 0.0
2017-Jan-03 08:33N 37°56' E 023°38'0 0.0
2017-Jan-03 07:32N 37°56' E 023°38'0 0.0
2017-Jan-03 06:34N 37°56' E 023°38'5 4.5
2017-Jan-03 05:33N 37°52' E 023°38'1413.9
2017-Jan-03 04:33N 37°39' E 023°45'1414.3
2017-Jan-03 03:33N 37°25' E 023°41'10210.9
2017-Jan-02 18:12N 36°38' E 021°48'  
Track history (hours):
 
Tides and Currents Weather Stations Pressure Air Temp Water Temp Dewpoint Dewpoint Depression Visibility Wind Speed Wind Dir Waves Ship Positions

Costa Luminosa

Last reported at 2017-Jan-12 01:23 UTC. Time now 2017-Jan-19 21:31 UTC.
Position N 28°04' W 013°29'.

Length 294 m; draft 8 m.

Type: Passenger vessel. MMSI: 247257900.

Date/timePositionNaut miles runAvg speedWind from/ knotsBaromVisibWave heightAir tempDewpointWater temp
2017-Jan-12 01:23N 28°04' W 013°29'2218.0
2017-Jan-12 00:08N 28°21' W 013°13'59511.5
2017-Jan-09 20:12N 35°57' W 005°42'1218.1
2017-Jan-09 19:33N 35°59' W 005°27'1818.1
2017-Jan-09 18:33N 36°04' W 005°06'13519.2
2017-Jan-09 11:31N 36°25' W 002°20'1918.5
2017-Jan-09 10:28N 36°33' W 001°59'5819.7
2017-Jan-09 07:32N 37°12' W 001°04'1919.5
2017-Jan-09 06:33N 37°25' W 000°47'2019.7
2017-Jan-09 05:33N 37°39' W 000°29'1919.3
2017-Jan-09 04:33N 37°55' W 000°16'2019.7
2017-Jan-09 03:33N 38°12' W 000°03'1919.2
2017-Jan-09 02:33N 38°28' E 000°11'2019.7
2017-Jan-09 01:33N 38°45' E 000°24'2719.0
2017-Jan-09 00:09N 39°08' E 000°40'5019.1
2017-Jan-08 21:33N 39°52' E 001°11'1919.2
2017-Jan-08 20:34N 40°09' E 001°23'2019.8
2017-Jan-08 19:33N 40°26' E 001°35'2019.7
2017-Jan-08 18:33N 40°43' E 001°47'2019.8
2017-Jan-08 17:33N 41°01' E 001°60'1918.6
2017-Jan-08 16:33N 41°18' E 002°11'3 3.4
2017-Jan-08 15:32N 41°21' E 002°11'0 0.0
2017-Jan-08 14:32N 41°21' E 002°11'0 0.0
2017-Jan-08 13:23N 41°21' E 002°11'0 0.0
2017-Jan-08 12:08N 41°21' E 002°11'0 0.0
2017-Jan-08 11:32N 41°21' E 002°11'0 0.0
2017-Jan-08 10:23N 41°21' E 002°11'0 0.0
2017-Jan-08 09:32N 41°21' E 002°11'0 0.0
2017-Jan-08 08:32N 41°21' E 002°11'0 0.0
2017-Jan-08 07:32N 41°21' E 002°11'0 0.0
2017-Jan-08 06:33N 41°21' E 002°10'6 5.6
2017-Jan-08 05:34N 41°16' E 002°13'1413.7
2017-Jan-08 04:33N 41°23' E 002°29'1414.4
2017-Jan-08 03:33N 41°32' E 002°44'1414.4
2017-Jan-08 02:33N 41°40' E 002°60'1414.0
2017-Jan-08 01:33N 41°48' E 003°15'1514.7
2017-Jan-08 00:33N 41°58' E 003°30'10115.7
2017-Jan-07 18:05N 43°10' E 005°06'916.2
2017-Jan-07 17:33N 43°18' E 005°12'1 0.0
2017-Jan-07 05:33N 43°17' E 005°13'1110.9
2017-Jan-07 04:33N 43°07' E 005°16'8013.4
2017-Jan-06 22:33N 43°14' E 007°05'1414.4
2017-Jan-06 21:33N 43°23' E 007°21'1514.7
2017-Jan-06 20:33N 43°32' E 007°38'1616.3
2017-Jan-06 19:33N 43°41' E 007°56'2316.6
2017-Jan-06 18:11N 43°58' E 008°17'1016.3
2017-Jan-06 17:33N 44°06' E 008°26'1313.3
2017-Jan-06 16:34N 44°19' E 008°31'1 1.0
2017-Jan-06 15:29N 44°19' E 008°29'0 0.0
2017-Jan-06 14:33N 44°19' E 008°29'0 0.0
2017-Jan-06 13:33N 44°19' E 008°29'0 0.0
2017-Jan-06 12:24N 44°19' E 008°29'0 0.0
2017-Jan-06 11:30N 44°19' E 008°29'0 0.0
2017-Jan-06 10:29N 44°19' E 008°29'0 0.0
2017-Jan-06 09:29N 44°19' E 008°29'0 0.0
2017-Jan-06 08:29N 44°19' E 008°29'0 0.2
2017-Jan-06 07:33N 44°19' E 008°29'8 8.3
2017-Jan-06 06:33N 44°12' E 008°37'1817.5
2017-Jan-06 05:33N 43°58' E 008°50'2120.6
2017-Jan-06 04:34N 43°40' E 009°05'2120.6
2017-Jan-06 03:34N 43°23' E 009°20'2020.2
2017-Jan-06 02:33N 43°06' E 009°36'1919.4
2017-Jan-06 01:34N 42°49' E 009°48'2220.7
2017-Jan-06 00:29N 42°36' E 010°13'2120.7
2017-Jan-05 23:29N 42°22' E 010°33'30711.8
2017-Jan-04 21:33N 38°41' E 015°13'1716.8
2017-Jan-04 20:33N 38°29' E 015°29'1616.2
2017-Jan-04 19:33N 38°17' E 015°42'1515.3
2017-Jan-04 18:33N 38°02' E 015°35'1414.3
2017-Jan-04 17:33N 37°51' E 015°47'1616.0
2017-Jan-04 16:33N 37°47' E 016°07'35717.0
2017-Jan-03 19:32N 36°33' E 023°24'1717.9
2017-Jan-03 18:33N 36°50' E 023°30'3918.1
2017-Jan-03 16:23N 37°29' E 023°40'1416.7
2017-Jan-03 15:33N 37°42' E 023°40'1414.1
2017-Jan-03 14:34N 37°56' E 023°38'0 0.4
2017-Jan-03 13:32N 37°56' E 023°38'0 0.0
2017-Jan-03 12:32N 37°56' E 023°38'0 0.0
2017-Jan-03 11:20N 37°56' E 023°38'0 0.0
2017-Jan-03 10:32N 37°56' E 023°38'0 0.0
2017-Jan-03 09:32N 37°56' E 023°38'0 0.0
2017-Jan-03 08:33N 37°56' E 023°38'0 0.0
2017-Jan-03 07:32N 37°56' E 023°38'0 0.0
2017-Jan-03 06:34N 37°56' E 023°38'5 4.5
2017-Jan-03 05:33N 37°52' E 023°38'1413.9
2017-Jan-03 04:33N 37°39' E 023°45'1414.3
2017-Jan-03 03:33N 37°25' E 023°41'10210.9
2017-Jan-02 18:12N 36°38' E 021°48'  

Dump ship's entire track history